sensor_id;sensor_type;location;lat;lon;timestamp;pressure;altitude;pressure_sealevel;temperature;humidity
82249;BME280;71851;49.092;18.918;2024-03-22T00:00:44;97493.75;;;11.59;60.87
82249;BME280;71851;49.092;18.918;2024-03-22T00:03:45;97493.69;;;11.67;61.23
82249;BME280;71851;49.092;18.918;2024-03-22T00:06:47;97496.03;;;11.76;61.54
82249;BME280;71851;49.092;18.918;2024-03-22T00:09:47;97494.75;;;11.87;61.86
82249;BME280;71851;49.092;18.918;2024-03-22T00:12:49;97489.59;;;11.79;62.11
82249;BME280;71851;49.092;18.918;2024-03-22T00:15:50;97490.66;;;11.84;62.37
82249;BME280;71851;49.092;18.918;2024-03-22T00:18:50;97476.81;;;11.76;60.51
82249;BME280;71851;49.092;18.918;2024-03-22T00:21:50;97490.22;;;11.66;60.40
82249;BME280;71851;49.092;18.918;2024-03-22T00:24:52;97495.84;;;11.63;61.19
82249;BME280;71851;49.092;18.918;2024-03-22T00:27:54;97481.25;;;11.75;62.39
82249;BME280;71851;49.092;18.918;2024-03-22T00:30:56;97486.88;;;11.58;61.95
82249;BME280;71851;49.092;18.918;2024-03-22T00:33:56;97487.75;;;11.65;61.21
82249;BME280;71851;49.092;18.918;2024-03-22T00:36:57;97480.19;;;11.70;60.95
82249;BME280;71851;49.092;18.918;2024-03-22T00:39:57;97485.03;;;12.02;60.33
82249;BME280;71851;49.092;18.918;2024-03-22T00:42:59;97486.41;;;11.83;60.60
82249;BME280;71851;49.092;18.918;2024-03-22T00:46:00;97491.88;;;11.82;60.99
82249;BME280;71851;49.092;18.918;2024-03-22T00:49:02;97480.25;;;11.76;60.96
82249;BME280;71851;49.092;18.918;2024-03-22T00:52:03;97486.31;;;11.62;60.78
82249;BME280;71851;49.092;18.918;2024-03-22T00:55:03;97490.31;;;11.73;61.95
82249;BME280;71851;49.092;18.918;2024-03-22T00:58:04;97483.44;;;11.72;62.14
82249;BME280;71851;49.092;18.918;2024-03-22T01:01:05;97490.94;;;11.60;62.82
82249;BME280;71851;49.092;18.918;2024-03-22T01:04:06;97489.50;;;11.58;64.19
82249;BME280;71851;49.092;18.918;2024-03-22T01:07:09;97488.47;;;11.59;64.31
82249;BME280;71851;49.092;18.918;2024-03-22T01:10:10;97485.06;;;11.58;63.67
82249;BME280;71851;49.092;18.918;2024-03-22T01:13:11;97477.53;;;11.41;64.05
82249;BME280;71851;49.092;18.918;2024-03-22T01:16:11;97478.97;;;11.29;64.66
82249;BME280;71851;49.092;18.918;2024-03-22T01:19:12;97467.38;;;11.23;65.87
82249;BME280;71851;49.092;18.918;2024-03-22T01:22:12;97484.44;;;11.04;66.72
82249;BME280;71851;49.092;18.918;2024-03-22T01:25:13;97479.47;;;10.95;67.25
82249;BME280;71851;49.092;18.918;2024-03-22T01:28:14;97472.28;;;10.89;67.23
82249;BME280;71851;49.092;18.918;2024-03-22T01:31:15;97477.22;;;10.92;67.22
82249;BME280;71851;49.092;18.918;2024-03-22T01:34:17;97485.88;;;10.92;66.32
82249;BME280;71851;49.092;18.918;2024-03-22T01:37:19;97478.00;;;10.92;66.74
82249;BME280;71851;49.092;18.918;2024-03-22T01:40:19;97473.72;;;10.77;67.01
82249;BME280;71851;49.092;18.918;2024-03-22T01:43:21;97479.50;;;10.72;68.33
82249;BME280;71851;49.092;18.918;2024-03-22T01:46:21;97474.25;;;10.72;67.63
82249;BME280;71851;49.092;18.918;2024-03-22T01:49:23;97472.50;;;10.65;68.57
82249;BME280;71851;49.092;18.918;2024-03-22T01:52:25;97473.78;;;10.69;68.75
82249;BME280;71851;49.092;18.918;2024-03-22T01:55:26;97480.16;;;10.89;67.78
82249;BME280;71851;49.092;18.918;2024-03-22T01:58:27;97478.31;;;10.75;68.89
82249;BME280;71851;49.092;18.918;2024-03-22T02:01:28;97480.63;;;10.78;68.52
82249;BME280;71851;49.092;18.918;2024-03-22T02:04:29;97490.22;;;10.63;68.89
82249;BME280;71851;49.092;18.918;2024-03-22T02:07:30;97487.50;;;10.56;69.42
82249;BME280;71851;49.092;18.918;2024-03-22T02:10:31;97489.25;;;10.64;68.89
82249;BME280;71851;49.092;18.918;2024-03-22T02:13:32;97486.44;;;10.65;70.27
82249;BME280;71851;49.092;18.918;2024-03-22T02:16:33;97484.66;;;10.66;69.90
82249;BME280;71851;49.092;18.918;2024-03-22T02:19:33;97482.47;;;10.69;69.25
82249;BME280;71851;49.092;18.918;2024-03-22T02:22:34;97496.56;;;10.68;69.53
82249;BME280;71851;49.092;18.918;2024-03-22T02:25:34;97479.97;;;10.76;70.50
82249;BME280;71851;49.092;18.918;2024-03-22T02:28:35;97496.88;;;10.73;69.17
82249;BME280;71851;49.092;18.918;2024-03-22T02:31:36;97488.31;;;10.79;69.45
82249;BME280;71851;49.092;18.918;2024-03-22T02:34:37;97482.16;;;10.87;68.21
82249;BME280;71851;49.092;18.918;2024-03-22T02:37:37;97479.34;;;10.88;69.00
82249;BME280;71851;49.092;18.918;2024-03-22T02:40:38;97488.81;;;10.97;68.79
82249;BME280;71851;49.092;18.918;2024-03-22T02:43:38;97487.34;;;10.95;68.39
82249;BME280;71851;49.092;18.918;2024-03-22T02:46:38;97488.06;;;11.70;67.66
82249;BME280;71851;49.092;18.918;2024-03-22T02:49:39;97478.50;;;11.10;68.47
82249;BME280;71851;49.092;18.918;2024-03-22T02:52:39;97483.41;;;11.13;67.97
82249;BME280;71851;49.092;18.918;2024-03-22T02:55:40;97485.94;;;11.22;68.24
82249;BME280;71851;49.092;18.918;2024-03-22T02:58:42;97485.41;;;11.26;67.45
82249;BME280;71851;49.092;18.918;2024-03-22T03:01:42;97499.63;;;11.32;66.97
82249;BME280;71851;49.092;18.918;2024-03-22T03:04:43;97485.41;;;11.26;67.09
82249;BME280;71851;49.092;18.918;2024-03-22T03:07:43;97484.84;;;11.16;67.22
82249;BME280;71851;49.092;18.918;2024-03-22T03:10:43;97486.38;;;11.10;68.05
82249;BME280;71851;49.092;18.918;2024-03-22T03:13:44;97482.38;;;11.14;67.81
82249;BME280;71851;49.092;18.918;2024-03-22T03:16:44;97483.66;;;11.19;68.11
82249;BME280;71851;49.092;18.918;2024-03-22T03:19:45;97486.13;;;11.20;67.23
82249;BME280;71851;49.092;18.918;2024-03-22T03:22:46;97474.44;;;11.23;67.48
82249;BME280;71851;49.092;18.918;2024-03-22T03:25:46;97478.78;;;11.16;67.72
82249;BME280;71851;49.092;18.918;2024-03-22T03:28:47;97472.28;;;11.26;67.82
82249;BME280;71851;49.092;18.918;2024-03-22T03:31:47;97479.78;;;11.29;68.03
82249;BME280;71851;49.092;18.918;2024-03-22T03:34:49;97474.97;;;11.33;68.07
82249;BME280;71851;49.092;18.918;2024-03-22T03:37:50;97473.63;;;11.37;68.27
82249;BME280;71851;49.092;18.918;2024-03-22T03:40:50;97478.25;;;11.35;68.79
82249;BME280;71851;49.092;18.918;2024-03-22T03:43:51;97476.44;;;11.35;67.60
82249;BME280;71851;49.092;18.918;2024-03-22T03:46:51;97474.63;;;11.36;67.30
82249;BME280;71851;49.092;18.918;2024-03-22T03:49:52;97475.09;;;11.39;68.11
82249;BME280;71851;49.092;18.918;2024-03-22T03:52:53;97476.78;;;11.18;68.17
82249;BME280;71851;49.092;18.918;2024-03-22T03:55:54;97466.03;;;11.42;67.92
82249;BME280;71851;49.092;18.918;2024-03-22T03:58:55;97469.28;;;11.44;68.01
82249;BME280;71851;49.092;18.918;2024-03-22T04:01:55;97464.47;;;11.47;68.85
82249;BME280;71851;49.092;18.918;2024-03-22T04:04:57;97465.00;;;11.43;66.51
82249;BME280;71851;49.092;18.918;2024-03-22T04:07:57;97455.72;;;11.40;66.58
82249;BME280;71851;49.092;18.918;2024-03-22T04:10:59;97459.22;;;11.33;65.66
82249;BME280;71851;49.092;18.918;2024-03-22T04:13:59;97446.81;;;11.27;65.87
82249;BME280;71851;49.092;18.918;2024-03-22T04:17:01;97449.81;;;11.24;66.28
82249;BME280;71851;49.092;18.918;2024-03-22T04:20:02;97438.75;;;11.13;66.99
82249;BME280;71851;49.092;18.918;2024-03-22T04:23:06;97449.16;;;11.07;67.51
82249;BME280;71851;49.092;18.918;2024-03-22T04:26:07;97434.03;;;11.09;68.45
82249;BME280;71851;49.092;18.918;2024-03-22T04:29:07;97438.31;;;11.10;67.50
82249;BME280;71851;49.092;18.918;2024-03-22T04:32:07;97443.72;;;11.08;68.78
82249;BME280;71851;49.092;18.918;2024-03-22T04:35:08;97443.00;;;11.00;69.11
82249;BME280;71851;49.092;18.918;2024-03-22T04:38:09;97444.09;;;11.05;69.44
82249;BME280;71851;49.092;18.918;2024-03-22T04:41:10;97442.28;;;11.06;69.28
82249;BME280;71851;49.092;18.918;2024-03-22T04:44:10;97439.81;;;11.04;67.92
82249;BME280;71851;49.092;18.918;2024-03-22T04:47:11;97436.13;;;11.13;69.02
82249;BME280;71851;49.092;18.918;2024-03-22T04:50:13;97442.84;;;11.16;68.80
82249;BME280;71851;49.092;18.918;2024-03-22T04:53:16;97442.28;;;11.21;68.75
82249;BME280;71851;49.092;18.918;2024-03-22T04:56:17;97435.50;;;11.26;68.12
82249;BME280;71851;49.092;18.918;2024-03-22T04:59:17;97440.19;;;11.31;68.01
82249;BME280;71851;49.092;18.918;2024-03-22T05:02:18;97442.66;;;11.32;67.73
82249;BME280;71851;49.092;18.918;2024-03-22T05:05:18;97439.03;;;11.33;68.58
82249;BME280;71851;49.092;18.918;2024-03-22T05:08:19;97437.94;;;11.42;69.17
82249;BME280;71851;49.092;18.918;2024-03-22T05:11:19;97440.28;;;11.37;69.21
82249;BME280;71851;49.092;18.918;2024-03-22T05:14:20;97435.47;;;11.41;69.45
82249;BME280;71851;49.092;18.918;2024-03-22T05:17:21;97437.13;;;11.42;68.21
82249;BME280;71851;49.092;18.918;2024-03-22T05:20:22;97438.72;;;11.43;67.16
82249;BME280;71851;49.092;18.918;2024-03-22T05:23:22;97441.56;;;11.41;67.14
82249;BME280;71851;49.092;18.918;2024-03-22T05:26:23;97427.78;;;11.39;67.66
82249;BME280;71851;49.092;18.918;2024-03-22T05:29:23;97432.78;;;11.34;67.59
82249;BME280;71851;49.092;18.918;2024-03-22T05:32:25;97437.56;;;11.31;68.17
82249;BME280;71851;49.092;18.918;2024-03-22T05:35:27;97439.94;;;11.26;68.33
82249;BME280;71851;49.092;18.918;2024-03-22T05:38:27;97441.91;;;12.18;64.50
82249;BME280;71851;49.092;18.918;2024-03-22T05:41:28;97436.75;;;11.16;68.75
82249;BME280;71851;49.092;18.918;2024-03-22T05:44:28;97436.19;;;11.05;69.57
82249;BME280;71851;49.092;18.918;2024-03-22T05:47:29;97435.44;;;12.41;64.32
82249;BME280;71851;49.092;18.918;2024-03-22T05:50:31;97434.06;;;11.38;67.43
82249;BME280;71851;49.092;18.918;2024-03-22T05:53:31;97431.97;;;11.48;67.11
82249;BME280;71851;49.092;18.918;2024-03-22T05:56:32;97426.41;;;11.72;66.31
82249;BME280;71851;49.092;18.918;2024-03-22T05:59:32;97427.31;;;11.79;66.27
82249;BME280;71851;49.092;18.918;2024-03-22T06:02:33;97437.41;;;11.97;65.39
82249;BME280;71851;49.092;18.918;2024-03-22T06:05:33;97439.69;;;12.00;64.11
82249;BME280;71851;49.092;18.918;2024-03-22T06:08:35;97429.63;;;12.04;64.48
82249;BME280;71851;49.092;18.918;2024-03-22T06:11:39;97442.78;;;11.89;64.97
82249;BME280;71851;49.092;18.918;2024-03-22T06:14:44;97441.06;;;11.96;65.18
82249;BME280;71851;49.092;18.918;2024-03-22T06:17:45;97458.28;;;11.98;65.32
82249;BME280;71851;49.092;18.918;2024-03-22T06:20:47;97453.59;;;12.15;65.07
82249;BME280;71851;49.092;18.918;2024-03-22T06:23:51;97460.63;;;12.29;64.55
82249;BME280;71851;49.092;18.918;2024-03-22T06:26:52;97453.91;;;12.27;65.03
82249;BME280;71851;49.092;18.918;2024-03-22T06:29:52;97454.81;;;12.34;64.11
82249;BME280;71851;49.092;18.918;2024-03-22T06:32:54;97454.31;;;12.45;63.74
82249;BME280;71851;49.092;18.918;2024-03-22T06:35:57;97452.50;;;12.24;63.79
82249;BME280;71851;49.092;18.918;2024-03-22T06:38:58;97460.53;;;12.37;62.96
82249;BME280;71851;49.092;18.918;2024-03-22T06:42:02;97457.63;;;12.53;61.40
82249;BME280;71851;49.092;18.918;2024-03-22T06:45:02;97452.25;;;12.82;60.35
82249;BME280;71851;49.092;18.918;2024-03-22T06:48:03;97456.78;;;12.95;59.69
82249;BME280;71851;49.092;18.918;2024-03-22T06:51:04;97457.38;;;13.93;56.73
82249;BME280;71851;49.092;18.918;2024-03-22T06:54:04;97452.25;;;14.32;54.31
82249;BME280;71851;49.092;18.918;2024-03-22T06:57:05;97445.81;;;14.68;51.92
82249;BME280;71851;49.092;18.918;2024-03-22T07:00:06;97452.94;;;15.06;51.05
82249;BME280;71851;49.092;18.918;2024-03-22T07:03:10;97443.78;;;14.96;51.27
82249;BME280;71851;49.092;18.918;2024-03-22T07:06:10;97444.41;;;15.11;51.49
82249;BME280;71851;49.092;18.918;2024-03-22T07:09:11;97429.50;;;15.43;50.65
82249;BME280;71851;49.092;18.918;2024-03-22T07:12:11;97433.00;;;14.58;52.65
82249;BME280;71851;49.092;18.918;2024-03-22T07:15:12;97442.84;;;14.23;53.57
82249;BME280;71851;49.092;18.918;2024-03-22T07:18:14;97436.25;;;13.87;55.20
82249;BME280;71851;49.092;18.918;2024-03-22T07:21:14;97442.06;;;13.28;57.36
82249;BME280;71851;49.092;18.918;2024-03-22T07:24:14;97435.88;;;13.15;59.53
82249;BME280;71851;49.092;18.918;2024-03-22T07:27:15;97433.81;;;13.10;59.56
82249;BME280;71851;49.092;18.918;2024-03-22T07:30:15;97426.75;;;13.17;60.15
82249;BME280;71851;49.092;18.918;2024-03-22T07:33:16;97415.75;;;13.41;59.70
82249;BME280;71851;49.092;18.918;2024-03-22T07:36:17;97426.41;;;13.61;59.75
82249;BME280;71851;49.092;18.918;2024-03-22T07:39:19;97408.66;;;13.83;58.82
82249;BME280;71851;49.092;18.918;2024-03-22T07:42:19;97397.22;;;14.49;56.48
82249;BME280;71851;49.092;18.918;2024-03-22T07:45:21;97401.69;;;14.42;55.88
82249;BME280;71851;49.092;18.918;2024-03-22T07:48:22;97417.34;;;15.02;54.61
82249;BME280;71851;49.092;18.918;2024-03-22T07:51:23;97404.91;;;15.42;53.00
82249;BME280;71851;49.092;18.918;2024-03-22T07:54:23;97414.09;;;15.07;53.38
82249;BME280;71851;49.092;18.918;2024-03-22T07:57:24;97402.53;;;14.82;54.92
82249;BME280;71851;49.092;18.918;2024-03-22T08:00:24;97404.31;;;15.20;54.33
82249;BME280;71851;49.092;18.918;2024-03-22T08:03:27;97405.56;;;14.59;54.37
82249;BME280;71851;49.092;18.918;2024-03-22T08:06:28;97411.97;;;14.04;56.59
82249;BME280;71851;49.092;18.918;2024-03-22T08:09:28;97403.34;;;14.76;55.12
82249;BME280;71851;49.092;18.918;2024-03-22T08:12:29;97407.13;;;14.14;57.21
82249;BME280;71851;49.092;18.918;2024-03-22T08:15:29;97409.50;;;13.96;57.94
82249;BME280;71851;49.092;18.918;2024-03-22T08:18:30;97403.94;;;13.72;59.27
82249;BME280;71851;49.092;18.918;2024-03-22T08:21:31;97399.59;;;14.05;58.76
82249;BME280;71851;49.092;18.918;2024-03-22T08:24:31;97394.97;;;14.26;58.29
82249;BME280;71851;49.092;18.918;2024-03-22T08:27:32;97403.53;;;14.55;57.18
82249;BME280;71851;49.092;18.918;2024-03-22T08:30:32;97401.66;;;14.22;58.80
82249;BME280;71851;49.092;18.918;2024-03-22T08:33:33;97405.53;;;14.33;58.45
82249;BME280;71851;49.092;18.918;2024-03-22T08:36:34;97400.19;;;14.07;58.84
82249;BME280;71851;49.092;18.918;2024-03-22T08:39:35;97403.00;;;14.05;59.67
82249;BME280;71851;49.092;18.918;2024-03-22T08:42:36;97398.88;;;14.57;57.86
82249;BME280;71851;49.092;18.918;2024-03-22T08:45:36;97401.28;;;14.97;56.74
82249;BME280;71851;49.092;18.918;2024-03-22T08:48:37;97396.81;;;14.91;56.48
82249;BME280;71851;49.092;18.918;2024-03-22T08:51:38;97390.16;;;14.63;57.33
82249;BME280;71851;49.092;18.918;2024-03-22T08:54:38;97390.03;;;15.48;55.20
82249;BME280;71851;49.092;18.918;2024-03-22T08:57:39;97391.44;;;16.88;51.22
82249;BME280;71851;49.092;18.918;2024-03-22T09:00:41;97378.78;;;17.69;49.10
82249;BME280;71851;49.092;18.918;2024-03-22T09:03:42;97385.72;;;16.66;50.75
82249;BME280;71851;49.092;18.918;2024-03-22T09:06:46;97391.31;;;16.52;51.38
82249;BME280;71851;49.092;18.918;2024-03-22T09:09:47;97386.03;;;17.01;49.82
82249;BME280;71851;49.092;18.918;2024-03-22T09:12:47;97383.25;;;16.71;50.40
82249;BME280;71851;49.092;18.918;2024-03-22T09:15:48;97381.06;;;17.83;47.89
82249;BME280;71851;49.092;18.918;2024-03-22T09:18:48;97376.84;;;19.46;43.99
82249;BME280;71851;49.092;18.918;2024-03-22T09:21:48;97364.44;;;21.95;37.69
82249;BME280;71851;49.092;18.918;2024-03-22T09:24:49;97371.06;;;22.41;35.21
82249;BME280;71851;49.092;18.918;2024-03-22T09:27:50;97367.97;;;23.18;33.95
82249;BME280;71851;49.092;18.918;2024-03-22T09:30:50;97371.91;;;22.47;35.35
82249;BME280;71851;49.092;18.918;2024-03-22T09:33:52;97361.97;;;23.42;33.84
82249;BME280;71851;49.092;18.918;2024-03-22T09:36:53;97364.59;;;23.99;31.91
82249;BME280;71851;49.092;18.918;2024-03-22T09:39:53;97351.13;;;22.54;34.04
82249;BME280;71851;49.092;18.918;2024-03-22T09:42:59;97361.66;;;21.04;36.66
82249;BME280;71851;49.092;18.918;2024-03-22T09:46:02;97361.41;;;21.87;34.07
82249;BME280;71851;49.092;18.918;2024-03-22T09:49:03;97365.84;;;18.96;36.56
82249;BME280;71851;49.092;18.918;2024-03-22T09:52:04;97363.31;;;18.25;39.67
82249;BME280;71851;49.092;18.918;2024-03-22T09:55:06;97370.44;;;17.83;44.44
82249;BME280;71851;49.092;18.918;2024-03-22T09:58:07;97367.88;;;18.07;44.74
82249;BME280;71851;49.092;18.918;2024-03-22T10:01:08;97354.63;;;18.30;45.24
82249;BME280;71851;49.092;18.918;2024-03-22T10:04:08;97356.97;;;18.79;43.79
82249;BME280;71851;49.092;18.918;2024-03-22T10:07:10;97357.03;;;19.54;41.88
82249;BME280;71851;49.092;18.918;2024-03-22T10:10:10;97354.56;;;19.75;37.50
82249;BME280;71851;49.092;18.918;2024-03-22T10:13:13;97358.84;;;20.32;36.34
82249;BME280;71851;49.092;18.918;2024-03-22T10:16:13;97356.75;;;20.34;35.86
82249;BME280;71851;49.092;18.918;2024-03-22T10:19:15;97342.94;;;20.38;35.38
82249;BME280;71851;49.092;18.918;2024-03-22T10:22:16;97348.44;;;20.97;34.92
82249;BME280;71851;49.092;18.918;2024-03-22T10:25:17;97347.34;;;21.53;33.47
82249;BME280;71851;49.092;18.918;2024-03-22T10:28:18;97340.66;;;21.72;33.27
82249;BME280;71851;49.092;18.918;2024-03-22T10:31:19;97333.03;;;22.98;30.59
82249;BME280;71851;49.092;18.918;2024-03-22T10:34:21;97335.28;;;23.16;30.34
82249;BME280;71851;49.092;18.918;2024-03-22T10:37:22;97332.34;;;23.17;29.69
82249;BME280;71851;49.092;18.918;2024-03-22T10:40:23;97334.03;;;22.87;29.32
82249;BME280;71851;49.092;18.918;2024-03-22T10:43:25;97330.47;;;22.76;29.48
82249;BME280;71851;49.092;18.918;2024-03-22T10:46:30;97332.19;;;22.92;29.65
82249;BME280;71851;49.092;18.918;2024-03-22T10:49:36;97329.84;;;24.24;27.05
82249;BME280;71851;49.092;18.918;2024-03-22T10:52:39;97321.56;;;24.81;26.71
82249;BME280;71851;49.092;18.918;2024-03-22T10:55:46;97313.44;;;25.21;25.35
82249;BME280;71851;49.092;18.918;2024-03-22T10:58:48;97310.03;;;26.24;25.74
82249;BME280;71851;49.092;18.918;2024-03-22T11:01:50;97306.66;;;26.47;24.45
82249;BME280;71851;49.092;18.918;2024-03-22T11:04:58;97301.06;;;25.94;24.44
82249;BME280;71851;49.092;18.918;2024-03-22T11:08:07;97298.19;;;25.76;26.11
82249;BME280;71851;49.092;18.918;2024-03-22T11:11:10;97298.72;;;24.43;27.11
82249;BME280;71851;49.092;18.918;2024-03-22T11:14:11;97288.50;;;24.05;27.18
82249;BME280;71851;49.092;18.918;2024-03-22T11:17:11;97288.91;;;23.67;28.14
82249;BME280;71851;49.092;18.918;2024-03-22T11:20:12;97293.22;;;23.68;27.59
82249;BME280;71851;49.092;18.918;2024-03-22T11:23:12;97279.53;;;23.08;28.13
82249;BME280;71851;49.092;18.918;2024-03-22T11:26:13;97283.25;;;23.53;28.70
82249;BME280;71851;49.092;18.918;2024-03-22T11:29:14;97280.25;;;22.25;30.45
82249;BME280;71851;49.092;18.918;2024-03-22T11:32:15;97279.22;;;22.31;30.43
82249;BME280;71851;49.092;18.918;2024-03-22T11:35:15;97274.97;;;22.30;30.47
82249;BME280;71851;49.092;18.918;2024-03-22T11:38:16;97268.69;;;22.14;29.44
82249;BME280;71851;49.092;18.918;2024-03-22T11:41:18;97262.50;;;22.45;31.08
82249;BME280;71851;49.092;18.918;2024-03-22T11:44:19;97264.44;;;22.87;29.77
82249;BME280;71851;49.092;18.918;2024-03-22T11:47:21;97255.00;;;23.26;29.10
82249;BME280;71851;49.092;18.918;2024-03-22T11:50:21;97247.09;;;23.61;28.14
82249;BME280;71851;49.092;18.918;2024-03-22T11:53:22;97239.63;;;23.68;28.15
82249;BME280;71851;49.092;18.918;2024-03-22T11:56:24;97242.03;;;23.70;27.70
82249;BME280;71851;49.092;18.918;2024-03-22T11:59:25;97229.28;;;22.36;28.07
82249;BME280;71851;49.092;18.918;2024-03-22T12:02:27;97229.53;;;22.66;28.84
82249;BME280;71851;49.092;18.918;2024-03-22T12:05:29;97225.81;;;22.36;28.63
82249;BME280;71851;49.092;18.918;2024-03-22T12:08:30;97218.41;;;22.85;28.16
82249;BME280;71851;49.092;18.918;2024-03-22T12:11:30;97218.00;;;21.97;29.78
82249;BME280;71851;49.092;18.918;2024-03-22T12:14:31;97216.78;;;22.10;29.16
82249;BME280;71851;49.092;18.918;2024-03-22T12:17:31;97206.97;;;21.89;30.25
82249;BME280;71851;49.092;18.918;2024-03-22T12:20:32;97216.84;;;21.62;31.88
82249;BME280;71851;49.092;18.918;2024-03-22T12:23:32;97213.50;;;21.01;31.65
82249;BME280;71851;49.092;18.918;2024-03-22T12:26:33;97204.47;;;20.86;32.48
82249;BME280;71851;49.092;18.918;2024-03-22T12:29:34;97198.16;;;20.54;32.05
82249;BME280;71851;49.092;18.918;2024-03-22T12:32:35;97197.59;;;20.18;32.58
82249;BME280;71851;49.092;18.918;2024-03-22T12:35:38;97202.16;;;19.57;33.72
82249;BME280;71851;49.092;18.918;2024-03-22T12:38:39;97206.59;;;20.29;32.96
82249;BME280;71851;49.092;18.918;2024-03-22T12:41:40;97193.16;;;20.79;31.86
82249;BME280;71851;49.092;18.918;2024-03-22T12:44:40;97198.75;;;20.06;32.75
82249;BME280;71851;49.092;18.918;2024-03-22T12:47:40;97188.47;;;20.48;32.22
82249;BME280;71851;49.092;18.918;2024-03-22T12:50:41;97188.03;;;19.28;33.80
82249;BME280;71851;49.092;18.918;2024-03-22T12:53:41;97180.03;;;19.56;33.45
82249;BME280;71851;49.092;18.918;2024-03-22T12:56:42;97177.19;;;19.18;33.86
82249;BME280;71851;49.092;18.918;2024-03-22T12:59:42;97170.47;;;19.88;33.40
82249;BME280;71851;49.092;18.918;2024-03-22T13:02:43;97165.31;;;20.91;31.67
82249;BME280;71851;49.092;18.918;2024-03-22T13:05:43;97160.19;;;21.60;30.84
82249;BME280;71851;49.092;18.918;2024-03-22T13:08:43;97150.16;;;21.72;29.71
82249;BME280;71851;49.092;18.918;2024-03-22T13:11:44;97159.56;;;22.06;29.53
82249;BME280;71851;49.092;18.918;2024-03-22T13:14:44;97151.09;;;21.82;30.45
82249;BME280;71851;49.092;18.918;2024-03-22T13:17:45;97144.00;;;21.98;29.73
82249;BME280;71851;49.092;18.918;2024-03-22T13:20:46;97139.41;;;20.49;31.75
82249;BME280;71851;49.092;18.918;2024-03-22T13:23:47;97145.88;;;19.98;32.55
82249;BME280;71851;49.092;18.918;2024-03-22T13:26:47;97145.53;;;20.27;32.44
82249;BME280;71851;49.092;18.918;2024-03-22T13:29:48;97131.00;;;19.85;32.60
82249;BME280;71851;49.092;18.918;2024-03-22T13:32:48;97132.03;;;20.17;32.20
82249;BME280;71851;49.092;18.918;2024-03-22T13:35:49;97132.78;;;19.80;32.75
82249;BME280;71851;49.092;18.918;2024-03-22T13:38:49;97131.81;;;19.86;33.26
82249;BME280;71851;49.092;18.918;2024-03-22T13:41:50;97132.03;;;20.01;31.21
82249;BME280;71851;49.092;18.918;2024-03-22T13:44:50;97130.44;;;19.83;31.96
82249;BME280;71851;49.092;18.918;2024-03-22T13:47:51;97120.66;;;20.22;31.56
82249;BME280;71851;49.092;18.918;2024-03-22T13:50:55;97126.22;;;20.20;32.02
82249;BME280;71851;49.092;18.918;2024-03-22T13:53:56;97123.22;;;20.33;32.27
82249;BME280;71851;49.092;18.918;2024-03-22T13:56:56;97118.63;;;20.72;32.57
82249;BME280;71851;49.092;18.918;2024-03-22T13:59:58;97123.22;;;20.98;33.92
82249;BME280;71851;49.092;18.918;2024-03-22T14:02:59;97112.31;;;20.78;33.24
82249;BME280;71851;49.092;18.918;2024-03-22T14:05:59;97114.50;;;20.60;34.51
82249;BME280;71851;49.092;18.918;2024-03-22T14:09:00;97102.03;;;20.65;34.47
82249;BME280;71851;49.092;18.918;2024-03-22T14:12:01;97113.84;;;20.14;33.99
82249;BME280;71851;49.092;18.918;2024-03-22T14:15:01;97109.72;;;20.62;34.27
82249;BME280;71851;49.092;18.918;2024-03-22T14:18:02;97107.81;;;20.57;33.76
82249;BME280;71851;49.092;18.918;2024-03-22T14:21:03;97101.22;;;20.43;33.84
82249;BME280;71851;49.092;18.918;2024-03-22T14:24:04;97099.16;;;20.28;34.92
82249;BME280;71851;49.092;18.918;2024-03-22T14:27:04;97095.75;;;20.33;34.86
82249;BME280;71851;49.092;18.918;2024-03-22T14:30:05;97085.72;;;20.40;34.43
82249;BME280;71851;49.092;18.918;2024-03-22T14:33:07;97085.91;;;20.33;33.95
82249;BME280;71851;49.092;18.918;2024-03-22T14:36:07;97088.81;;;20.32;33.04
82249;BME280;71851;49.092;18.918;2024-03-22T14:39:09;97074.63;;;20.10;33.61
82249;BME280;71851;49.092;18.918;2024-03-22T14:42:10;97075.06;;;19.85;35.29
82249;BME280;71851;49.092;18.918;2024-03-22T14:45:10;97080.97;;;19.71;33.00
82249;BME280;71851;49.092;18.918;2024-03-22T14:48:11;97082.09;;;19.91;34.21
82249;BME280;71851;49.092;18.918;2024-03-22T14:51:12;97072.06;;;19.98;32.86
82249;BME280;71851;49.092;18.918;2024-03-22T14:54:15;97076.78;;;19.75;33.15
82249;BME280;71851;49.092;18.918;2024-03-22T14:57:16;97073.31;;;19.58;32.83
82249;BME280;71851;49.092;18.918;2024-03-22T15:00:16;97085.03;;;19.28;32.80
82249;BME280;71851;49.092;18.918;2024-03-22T15:03:17;97081.06;;;19.14;33.40
82249;BME280;71851;49.092;18.918;2024-03-22T15:06:17;97074.28;;;18.79;34.07
82249;BME280;71851;49.092;18.918;2024-03-22T15:09:17;97069.84;;;18.56;34.21
82249;BME280;71851;49.092;18.918;2024-03-22T15:12:18;97072.88;;;18.48;35.53
82249;BME280;71851;49.092;18.918;2024-03-22T15:15:19;97080.34;;;18.00;35.31
82249;BME280;71851;49.092;18.918;2024-03-22T15:18:19;97067.66;;;17.67;35.88
82249;BME280;71851;49.092;18.918;2024-03-22T15:21:20;97080.91;;;17.67;36.92
82249;BME280;71851;49.092;18.918;2024-03-22T15:24:21;97081.09;;;17.42;36.42
82249;BME280;71851;49.092;18.918;2024-03-22T15:27:21;97070.34;;;17.37;37.03
82249;BME280;71851;49.092;18.918;2024-03-22T15:30:22;97070.78;;;17.23;37.31
82249;BME280;71851;49.092;18.918;2024-03-22T15:33:22;97079.16;;;17.08;37.09
82249;BME280;71851;49.092;18.918;2024-03-22T15:36:23;97076.97;;;17.05;37.13
82249;BME280;71851;49.092;18.918;2024-03-22T15:39:23;97077.38;;;16.90;36.64
82249;BME280;71851;49.092;18.918;2024-03-22T15:42:25;97070.00;;;16.92;37.80
82249;BME280;71851;49.092;18.918;2024-03-22T15:45:27;97073.22;;;16.83;37.50